Macedonia, Ohio
Current Conditions -  °F | °C
As of 9:35 PM on Sunday 25 Jan 2015 (Local Time) from KPOV Reporting Station
Overcast Overcast  
Wind Chill:   Ceiling: 4900
Heat Index: 19°   Visibility: 10mi
Dew Point: 15°   Wind: 9mph
Humidity: 83%   Direction: 40°NE
Pressure: 29.84"   Gusts: NA
Location:  41.31°N, 81.5°W
Report Text: KPOV 260235Z AUTO 04008KT 10SM OVC049 M07/M09 A2984 RMK AO2 T10701095
Loading
Personal Weather Stations






























Interactive Weather Map New forecast layout! Learn more

10-Day Weather Forecast

Advertisements
Track Severe Weather on mobile